首页
METAR-TAF:

METAR-TAF

机场 :

多倫多皮爾遜國際機場

多伦多, 安大略省, 加拿大

纬度: 43-40N, 经度: 079-38W, 海拔: 173米

当前天气观测

该预报发布于28分钟前的21:00 UTC
风速4节,风向东南
温度 10°C
湿度 50%
气压 1016 hPa
能見度: 24.1公里
少量云层高于4000英尺
多云层高于5700英尺
多云层高于23000英尺

METAR: CYYZ 222100Z 14004KT 15SM FEW040 BKN057 BKN230 10/00 A2999 RMK CU1SC5CI1 SLP161

时间: 17:28 (21:28 UTC)

预报

该预报发布于50分钟前的20:38 UTC
预报有效从22日的 21点(UTC)到 23日的 24点(UTC)
风速8节,风向南转西南
能見度: 10公里
多云层高于6000英尺
成为
从 23日的 01点(UTC)到 23日的 03点(UTC)
风速3节,风向多变
从 23日的 0900点(UTC)
风速3节,风向多变
能見度: 10公里
少量云层高于800英尺
多云层高于4000英尺
短暂存在
从 23日的 09点(UTC)到 23日的 17点(UTC)
能見度: 9.7公里
多云层高于2000英尺
阴天层高于4000英尺
小阵雨, 轻雾
几率 30%
从 23日的 09点(UTC)到 23日的 15点(UTC)
能見度: 4.8公里
多云层高于600英尺
轻雾
从 23日的 1700点(UTC)
风速15节,风向西转西北,有时为25节阵风
能見度: 10公里
多云层高于3000英尺
短暂存在
从 23日的 17点(UTC)到 23日的 24点(UTC)
能見度: 10公里
小阵雨

TAF: CYYZ 222038Z 2221/2324 21008KT P6SM BKN060 BECMG 2301/2303 VRB03KT FM230900 VRB03KT P6SM FEW008 BKN040 TEMPO 2309/2317 6SM -SHRA BR BKN020 OVC040 PROB30 2309/2315 3SM BR BKN006 FM231700 30015G25KT P6SM BKN030 TEMPO 2317/2324 P6SM -SHRA RMK NXT FCST BY 230000Z

超过4000个机场的气象观测和天气预报(METAR&TAF报告)。

可查询的气象台以黄色和红色小点在地图上表示。

将鼠标移到小点上方,可查看气象台名称。

然后点击查看天气观测和预报。

如需切换地图:点击带黑十字的绿色按钮放大地图;点击带横线的绿色按钮缩小地图;或者点击绿色箭头查看邻近地区的地图。


METAR-TAF: